sensor_id;sensor_type;location;lat;lon;timestamp;pressure;altitude;pressure_sealevel;temperature;humidity
25664;BME280;13522;50.018;20.014;2022-09-30T00:01:18;98112.64;;;9.57;100.00
25664;BME280;13522;50.018;20.014;2022-09-30T00:04:30;98112.12;;;9.54;100.00
25664;BME280;13522;50.018;20.014;2022-09-30T00:07:42;98108.34;;;9.56;100.00
25664;BME280;13522;50.018;20.014;2022-09-30T00:11:05;98101.74;;;9.60;100.00
25664;BME280;13522;50.018;20.014;2022-09-30T00:14:22;98094.47;;;9.63;100.00
25664;BME280;13522;50.018;20.014;2022-09-30T00:17:34;98093.79;;;9.60;100.00
25664;BME280;13522;50.018;20.014;2022-09-30T00:20:46;98088.33;;;9.62;100.00
25664;BME280;13522;50.018;20.014;2022-09-30T00:23:58;98088.84;;;9.66;100.00
25664;BME280;13522;50.018;20.014;2022-09-30T00:27:10;98091.33;;;9.67;100.00
25664;BME280;13522;50.018;20.014;2022-09-30T00:30:22;98090.30;;;9.60;100.00
25664;BME280;13522;50.018;20.014;2022-09-30T00:33:34;98093.63;;;9.62;100.00
25664;BME280;13522;50.018;20.014;2022-09-30T00:36:47;98093.63;;;9.62;100.00
25664;BME280;13522;50.018;20.014;2022-09-30T00:40:00;98093.02;;;9.68;100.00
25664;BME280;13522;50.018;20.014;2022-09-30T00:43:15;98086.88;;;9.68;100.00
25664;BME280;13522;50.018;20.014;2022-09-30T00:46:33;98084.90;;;9.70;100.00
25664;BME280;13522;50.018;20.014;2022-09-30T00:49:48;98089.00;;;9.64;100.00
25664;BME280;13522;50.018;20.014;2022-09-30T00:53:06;98093.14;;;9.67;100.00
25664;BME280;13522;50.018;20.014;2022-09-30T00:56:22;98097.48;;;9.68;100.00
25664;BME280;13522;50.018;20.014;2022-09-30T00:59:38;98104.30;;;9.70;100.00
25664;BME280;13522;50.018;20.014;2022-09-30T01:02:52;98099.13;;;9.69;100.00
25664;BME280;13522;50.018;20.014;2022-09-30T01:06:05;98108.60;;;9.71;100.00
25664;BME280;13522;50.018;20.014;2022-09-30T01:09:17;98110.73;;;9.68;100.00
25664;BME280;13522;50.018;20.014;2022-09-30T01:12:30;98096.47;;;9.69;100.00
25664;BME280;13522;50.018;20.014;2022-09-30T01:15:52;98095.73;;;9.76;100.00
25664;BME280;13522;50.018;20.014;2022-09-30T01:19:25;98094.38;;;9.72;100.00
25664;BME280;13522;50.018;20.014;2022-09-30T01:23:00;98097.02;;;9.72;100.00
25664;BME280;13522;50.018;20.014;2022-09-30T01:26:46;98098.52;;;9.75;100.00
25664;BME280;13522;50.018;20.014;2022-09-30T01:30:11;98102.00;;;9.75;100.00
25664;BME280;13522;50.018;20.014;2022-09-30T01:33:32;98111.41;;;9.70;100.00
25664;BME280;13522;50.018;20.014;2022-09-30T01:36:56;98106.40;;;9.67;100.00
25664;BME280;13522;50.018;20.014;2022-09-30T01:40:14;98105.11;;;9.71;100.00
25664;BME280;13522;50.018;20.014;2022-09-30T01:43:37;98095.18;;;9.73;100.00
25664;BME280;13522;50.018;20.014;2022-09-30T01:46:50;98108.44;;;9.73;100.00
25664;BME280;13522;50.018;20.014;2022-09-30T01:50:06;98113.61;;;9.74;100.00
25664;BME280;13522;50.018;20.014;2022-09-30T01:53:25;98109.12;;;9.75;100.00
25664;BME280;13522;50.018;20.014;2022-09-30T01:56:42;98105.34;;;9.77;100.00
25664;BME280;13522;50.018;20.014;2022-09-30T01:59:59;98109.50;;;9.80;100.00
25664;BME280;13522;50.018;20.014;2022-09-30T02:03:18;98108.50;;;9.81;100.00
25664;BME280;13522;50.018;20.014;2022-09-30T02:06:36;98109.66;;;9.78;100.00
25664;BME280;13522;50.018;20.014;2022-09-30T02:09:53;98108.98;;;9.76;100.00
25664;BME280;13522;50.018;20.014;2022-09-30T02:13:16;98099.87;;;9.79;100.00
25664;BME280;13522;50.018;20.014;2022-09-30T02:16:28;98093.95;;;9.85;100.00
25664;BME280;13522;50.018;20.014;2022-09-30T02:19:46;98095.63;;;9.86;100.00
25664;BME280;13522;50.018;20.014;2022-09-30T02:23:03;98101.28;;;9.91;100.00
25664;BME280;13522;50.018;20.014;2022-09-30T02:26:19;98100.48;;;9.90;100.00
25664;BME280;13522;50.018;20.014;2022-09-30T02:29:35;98093.66;;;9.88;100.00
25664;BME280;13522;50.018;20.014;2022-09-30T02:32:52;98102.80;;;9.93;100.00
25664;BME280;13522;50.018;20.014;2022-09-30T02:36:09;98101.97;;;9.93;100.00
25664;BME280;13522;50.018;20.014;2022-09-30T02:39:27;98104.33;;;9.96;100.00
25664;BME280;13522;50.018;20.014;2022-09-30T02:42:41;98101.34;;;9.99;100.00
25664;BME280;13522;50.018;20.014;2022-09-30T02:45:58;98095.88;;;10.00;100.00
25664;BME280;13522;50.018;20.014;2022-09-30T02:49:16;98108.33;;;10.00;100.00
25664;BME280;13522;50.018;20.014;2022-09-30T02:52:36;98103.83;;;10.00;100.00
25664;BME280;13522;50.018;20.014;2022-09-30T02:56:08;98117.64;;;10.04;100.00
25664;BME280;13522;50.018;20.014;2022-09-30T02:59:27;98118.32;;;10.06;100.00
25664;BME280;13522;50.018;20.014;2022-09-30T03:02:38;98111.66;;;10.02;100.00
25664;BME280;13522;50.018;20.014;2022-09-30T03:05:51;98118.32;;;10.06;100.00
25664;BME280;13522;50.018;20.014;2022-09-30T03:09:04;98113.82;;;10.06;100.00
25664;BME280;13522;50.018;20.014;2022-09-30T03:12:22;98120.97;;;10.06;100.00
25664;BME280;13522;50.018;20.014;2022-09-30T03:15:46;98116.18;;;10.09;100.00
25664;BME280;13522;50.018;20.014;2022-09-30T03:19:18;98110.20;;;10.07;100.00
25664;BME280;13522;50.018;20.014;2022-09-30T03:22:55;98118.00;;;10.09;100.00
25664;BME280;13522;50.018;20.014;2022-09-30T03:26:16;98114.41;;;10.10;100.00
25664;BME280;13522;50.018;20.014;2022-09-30T03:29:35;98116.05;;;10.11;100.00
25664;BME280;13522;50.018;20.014;2022-09-30T03:33:00;98116.43;;;10.16;100.00
25664;BME280;13522;50.018;20.014;2022-09-30T03:36:20;98122.71;;;10.15;100.00
25664;BME280;13522;50.018;20.014;2022-09-30T03:39:44;98119.08;;;10.16;100.00
25664;BME280;13522;50.018;20.014;2022-09-30T03:43:04;98126.20;;;10.15;100.00
25664;BME280;13522;50.018;20.014;2022-09-30T03:46:22;98125.36;;;10.15;100.00
25664;BME280;13522;50.018;20.014;2022-09-30T03:49:41;98123.72;;;10.14;100.00
25664;BME280;13522;50.018;20.014;2022-09-30T03:52:55;98133.16;;;10.16;100.00
25664;BME280;13522;50.018;20.014;2022-09-30T03:56:07;98133.32;;;10.15;100.00
25664;BME280;13522;50.018;20.014;2022-09-30T03:59:22;98127.05;;;10.16;100.00
25664;BME280;13522;50.018;20.014;2022-09-30T04:02:35;98133.70;;;10.20;100.00
25664;BME280;13522;50.018;20.014;2022-09-30T04:05:47;98137.16;;;10.20;100.00
25664;BME280;13522;50.018;20.014;2022-09-30T04:08:59;98139.52;;;10.23;100.00
25664;BME280;13522;50.018;20.014;2022-09-30T04:12:11;98141.05;;;10.26;100.00
25664;BME280;13522;50.018;20.014;2022-09-30T04:15:22;98142.39;;;10.30;100.00
25664;BME280;13522;50.018;20.014;2022-09-30T04:18:35;98139.58;;;10.31;100.00
25664;BME280;13522;50.018;20.014;2022-09-30T04:21:51;98140.09;;;10.35;100.00
25664;BME280;13522;50.018;20.014;2022-09-30T04:25:05;98145.69;;;10.32;100.00
25664;BME280;13522;50.018;20.014;2022-09-30T04:28:17;98142.06;;;10.33;100.00
25664;BME280;13522;50.018;20.014;2022-09-30T04:31:29;98138.95;;;10.37;100.00
25664;BME280;13522;50.018;20.014;2022-09-30T04:34:44;98138.63;;;10.40;100.00
25664;BME280;13522;50.018;20.014;2022-09-30T04:37:55;98134.99;;;10.41;100.00
25664;BME280;13522;50.018;20.014;2022-09-30T04:41:12;98141.95;;;10.42;100.00
25664;BME280;13522;50.018;20.014;2022-09-30T04:44:25;98142.80;;;10.43;100.00
25664;BME280;13522;50.018;20.014;2022-09-30T04:47:37;98149.75;;;10.44;100.00
25664;BME280;13522;50.018;20.014;2022-09-30T04:50:49;98146.42;;;10.42;100.00
25664;BME280;13522;50.018;20.014;2022-09-30T04:54:01;98147.94;;;10.44;100.00
25664;BME280;13522;50.018;20.014;2022-09-30T04:57:13;98142.63;;;10.44;100.00
25664;BME280;13522;50.018;20.014;2022-09-30T05:00:25;98152.41;;;10.44;100.00
25664;BME280;13522;50.018;20.014;2022-09-30T05:03:37;98152.78;;;10.49;100.00
25664;BME280;13522;50.018;20.014;2022-09-30T05:06:49;98146.80;;;10.47;100.00
25664;BME280;13522;50.018;20.014;2022-09-30T05:10:01;98152.11;;;10.47;100.00
25664;BME280;13522;50.018;20.014;2022-09-30T05:13:13;98150.13;;;10.49;100.00
25664;BME280;13522;50.018;20.014;2022-09-30T05:16:25;98151.77;;;10.50;100.00
25664;BME280;13522;50.018;20.014;2022-09-30T05:19:37;98156.95;;;10.52;100.00
25664;BME280;13522;50.018;20.014;2022-09-30T05:22:53;98164.75;;;10.53;100.00
25664;BME280;13522;50.018;20.014;2022-09-30T05:26:06;98171.71;;;10.54;100.00
25664;BME280;13522;50.018;20.014;2022-09-30T05:29:18;98164.42;;;10.56;100.00
25664;BME280;13522;50.018;20.014;2022-09-30T05:32:30;98172.09;;;10.59;100.00
25664;BME280;13522;50.018;20.014;2022-09-30T05:35:43;98175.04;;;10.56;100.00
25664;BME280;13522;50.018;20.014;2022-09-30T05:38:57;98188.99;;;10.58;100.00
25664;BME280;13522;50.018;20.014;2022-09-30T05:42:08;98173.91;;;10.59;100.00
25664;BME280;13522;50.018;20.014;2022-09-30T05:45:20;98178.08;;;10.61;100.00
25664;BME280;13522;50.018;20.014;2022-09-30T05:48:32;98175.42;;;10.61;100.00
25664;BME280;13522;50.018;20.014;2022-09-30T05:51:43;98177.74;;;10.64;100.00
25664;BME280;13522;50.018;20.014;2022-09-30T05:54:55;98167.63;;;10.68;100.00
25664;BME280;13522;50.018;20.014;2022-09-30T05:58:08;98177.44;;;10.67;100.00
25664;BME280;13522;50.018;20.014;2022-09-30T06:01:19;98182.42;;;10.70;100.00
25664;BME280;13522;50.018;20.014;2022-09-30T06:04:31;98186.59;;;10.73;100.00
25664;BME280;13522;50.018;20.014;2022-09-30T06:07:42;98191.91;;;10.73;100.00
25664;BME280;13522;50.018;20.014;2022-09-30T06:10:55;98196.08;;;10.75;100.00
25664;BME280;13522;50.018;20.014;2022-09-30T06:14:07;98193.56;;;10.74;100.00
25664;BME280;13522;50.018;20.014;2022-09-30T06:17:19;98193.77;;;10.80;100.00
25664;BME280;13522;50.018;20.014;2022-09-30T06:20:32;98198.91;;;10.82;100.00
25664;BME280;13522;50.018;20.014;2022-09-30T06:23:44;98198.45;;;10.86;100.00
25664;BME280;13522;50.018;20.014;2022-09-30T06:26:55;98200.80;;;10.89;100.00
25664;BME280;13522;50.018;20.014;2022-09-30T06:30:09;98191.15;;;10.88;100.00
25664;BME280;13522;50.018;20.014;2022-09-30T06:33:22;98182.20;;;10.89;100.00
25664;BME280;13522;50.018;20.014;2022-09-30T06:36:34;98193.64;;;10.90;100.00
25664;BME280;13522;50.018;20.014;2022-09-30T06:39:46;98199.49;;;10.93;100.00
25664;BME280;13522;50.018;20.014;2022-09-30T06:43:00;98204.13;;;10.91;100.00
25664;BME280;13522;50.018;20.014;2022-09-30T06:46:13;98201.14;;;10.94;100.00
25664;BME280;13522;50.018;20.014;2022-09-30T06:49:28;98191.36;;;10.95;100.00
25664;BME280;13522;50.018;20.014;2022-09-30T06:52:42;98187.52;;;10.97;100.00
25664;BME280;13522;50.018;20.014;2022-09-30T06:55:56;98175.75;;;11.00;100.00
25664;BME280;13522;50.018;20.014;2022-09-30T06:59:09;98171.95;;;11.02;100.00
25664;BME280;13522;50.018;20.014;2022-09-30T07:02:22;98186.41;;;11.08;100.00
25664;BME280;13522;50.018;20.014;2022-09-30T07:05:33;98181.94;;;11.08;100.00
25664;BME280;13522;50.018;20.014;2022-09-30T07:08:45;98178.27;;;11.09;100.00
25664;BME280;13522;50.018;20.014;2022-09-30T07:11:58;98191.93;;;11.14;100.00
25664;BME280;13522;50.018;20.014;2022-09-30T07:15:11;98199.73;;;11.16;100.00
25664;BME280;13522;50.018;20.014;2022-09-30T07:18:24;98212.98;;;11.08;100.00
25664;BME280;13522;50.018;20.014;2022-09-30T07:21:36;98206.53;;;11.10;100.00
25664;BME280;13522;50.018;20.014;2022-09-30T07:24:48;98212.52;;;11.12;100.00
25664;BME280;13522;50.018;20.014;2022-09-30T07:28:00;98215.48;;;11.09;100.00
25664;BME280;13522;50.018;20.014;2022-09-30T07:31:14;98223.15;;;11.12;100.00
25664;BME280;13522;50.018;20.014;2022-09-30T07:34:29;98228.30;;;11.14;100.00
25664;BME280;13522;50.018;20.014;2022-09-30T07:37:40;98224.66;;;11.15;100.00
25664;BME280;13522;50.018;20.014;2022-09-30T07:40:57;98226.31;;;11.16;100.00
25664;BME280;13522;50.018;20.014;2022-09-30T07:44:13;98219.69;;;11.20;100.00
25664;BME280;13522;50.018;20.014;2022-09-30T07:47:25;98222.84;;;11.23;100.00
25664;BME280;13522;50.018;20.014;2022-09-30T07:50:37;98221.88;;;11.24;100.00
25664;BME280;13522;50.018;20.014;2022-09-30T07:53:52;98225.88;;;11.28;100.00
25664;BME280;13522;50.018;20.014;2022-09-30T07:57:05;98230.18;;;11.29;100.00
25664;BME280;13522;50.018;20.014;2022-09-30T08:00:18;98228.86;;;11.33;100.00
25664;BME280;13522;50.018;20.014;2022-09-30T08:03:32;98231.53;;;11.33;100.00
25664;BME280;13522;50.018;20.014;2022-09-30T08:06:46;98229.23;;;11.39;100.00
25664;BME280;13522;50.018;20.014;2022-09-30T08:09:59;98236.03;;;11.41;100.00
25664;BME280;13522;50.018;20.014;2022-09-30T08:13:11;98226.58;;;11.39;100.00
25664;BME280;13522;50.018;20.014;2022-09-30T08:16:25;98237.21;;;11.39;100.00
25664;BME280;13522;50.018;20.014;2022-09-30T08:19:37;98230.69;;;11.33;100.00
25664;BME280;13522;50.018;20.014;2022-09-30T08:22:52;98230.21;;;11.38;100.00
25664;BME280;13522;50.018;20.014;2022-09-30T08:26:07;98236.03;;;11.41;100.00
25664;BME280;13522;50.018;20.014;2022-09-30T08:29:22;98235.22;;;11.41;100.00
25664;BME280;13522;50.018;20.014;2022-09-30T08:32:36;98236.56;;;11.45;100.00
25664;BME280;13522;50.018;20.014;2022-09-30T08:35:48;98241.88;;;11.45;100.00
25664;BME280;13522;50.018;20.014;2022-09-30T08:38:59;98249.69;;;11.46;100.00
25664;BME280;13522;50.018;20.014;2022-09-30T08:42:28;98245.52;;;11.44;100.00
25664;BME280;13522;50.018;20.014;2022-09-30T08:45:54;98240.98;;;11.70;100.00
25664;BME280;13522;50.018;20.014;2022-09-30T08:49:22;98239.00;;;11.80;100.00
25664;BME280;13522;50.018;20.014;2022-09-30T08:52:43;98238.27;;;11.62;100.00
25664;BME280;13522;50.018;20.014;2022-09-30T08:55:57;98240.58;;;11.65;100.00
25664;BME280;13522;50.018;20.014;2022-09-30T08:59:27;98237.92;;;11.65;100.00
25664;BME280;13522;50.018;20.014;2022-09-30T09:02:33;98243.41;;;11.63;100.00
25664;BME280;13522;50.018;20.014;2022-09-30T09:05:52;98241.91;;;11.61;100.00
25664;BME280;13522;50.018;20.014;2022-09-30T09:09:32;98247.22;;;11.61;100.00
25664;BME280;13522;50.018;20.014;2022-09-30T09:12:55;98246.60;;;11.67;100.00
25664;BME280;13522;50.018;20.014;2022-09-30T09:16:13;98246.60;;;11.67;100.00
25664;BME280;13522;50.018;20.014;2022-09-30T09:19:33;98240.98;;;11.70;100.00
25664;BME280;13522;50.018;20.014;2022-09-30T09:22:48;98235.31;;;11.73;100.00
25664;BME280;13522;50.018;20.014;2022-09-30T09:26:02;98232.67;;;11.81;100.00
25664;BME280;13522;50.018;20.014;2022-09-30T09:29:24;98233.51;;;11.81;100.00
25664;BME280;13522;50.018;20.014;2022-09-30T09:32:47;98234.53;;;11.88;100.00
25664;BME280;13522;50.018;20.014;2022-09-30T09:36:10;98237.99;;;11.81;100.00
25664;BME280;13522;50.018;20.014;2022-09-30T09:39:55;98244.16;;;11.81;100.00
25664;BME280;13522;50.018;20.014;2022-09-30T09:43:17;98247.14;;;11.70;100.00
25664;BME280;13522;50.018;20.014;2022-09-30T09:46:39;98260.94;;;11.74;100.00
25664;BME280;13522;50.018;20.014;2022-09-30T09:49:56;98251.95;;;11.75;100.00
25664;BME280;13522;50.018;20.014;2022-09-30T09:57:08;98252.95;;;11.74;100.00
25664;BME280;13522;50.018;20.014;2022-09-30T10:00:26;98259.92;;;11.75;100.00
25664;BME280;13522;50.018;20.014;2022-09-30T10:04:06;98260.94;;;11.74;100.00
25664;BME280;13522;50.018;20.014;2022-09-30T10:07:20;98271.09;;;11.78;100.00
25664;BME280;13522;50.018;20.014;2022-09-30T10:10:37;98268.25;;;11.72;100.00
25664;BME280;13522;50.018;20.014;2022-09-30T10:13:57;98271.09;;;11.78;100.00
25664;BME280;13522;50.018;20.014;2022-09-30T10:17:16;98272.92;;;11.78;100.00
25664;BME280;13522;50.018;20.014;2022-09-30T10:20:33;98266.92;;;11.76;100.00
25664;BME280;13522;50.018;20.014;2022-09-30T10:23:46;98277.90;;;11.81;100.00
25664;BME280;13522;50.018;20.014;2022-09-30T10:26:58;98287.73;;;11.80;100.00
25664;BME280;13522;50.018;20.014;2022-09-30T10:30:10;98293.22;;;11.87;100.00
25664;BME280;13522;50.018;20.014;2022-09-30T10:33:28;98293.89;;;11.89;100.00
25664;BME280;13522;50.018;20.014;2022-09-30T10:36:43;98293.22;;;11.87;100.00
25664;BME280;13522;50.018;20.014;2022-09-30T10:39:59;98295.56;;;11.90;100.00
25664;BME280;13522;50.018;20.014;2022-09-30T10:43:21;98302.23;;;11.94;100.00
25664;BME280;13522;50.018;20.014;2022-09-30T10:46:37;98311.02;;;11.94;100.00
25664;BME280;13522;50.018;20.014;2022-09-30T10:49:53;98300.23;;;11.96;100.00
25664;BME280;13522;50.018;20.014;2022-09-30T10:53:16;98303.88;;;11.95;100.00
25664;BME280;13522;50.018;20.014;2022-09-30T10:56:39;98306.88;;;11.92;100.00
25664;BME280;13522;50.018;20.014;2022-09-30T10:59:58;98311.86;;;11.95;100.00
25664;BME280;13522;50.018;20.014;2022-09-30T11:03:17;98310.06;;;12.03;100.00
25664;BME280;13522;50.018;20.014;2022-09-30T11:06:36;98309.23;;;12.11;100.00
25664;BME280;13522;50.018;20.014;2022-09-30T11:09:53;98305.41;;;12.05;100.00
25664;BME280;13522;50.018;20.014;2022-09-30T11:13:12;98307.25;;;12.13;100.00
25664;BME280;13522;50.018;20.014;2022-09-30T11:16:32;98303.60;;;12.14;100.00
25664;BME280;13522;50.018;20.014;2022-09-30T11:19:50;98304.59;;;12.21;100.00
25664;BME280;13522;50.018;20.014;2022-09-30T11:23:06;98313.59;;;12.20;100.00
25664;BME280;13522;50.018;20.014;2022-09-30T11:26:30;98309.25;;;12.19;100.00
25664;BME280;13522;50.018;20.014;2022-09-30T11:29:57;98307.26;;;12.21;100.00
25664;BME280;13522;50.018;20.014;2022-09-30T11:33:28;98304.42;;;12.23;100.00
25664;BME280;13522;50.018;20.014;2022-09-30T11:36:57;98316.41;;;12.27;100.00
25664;BME280;13522;50.018;20.014;2022-09-30T11:40:22;98319.56;;;12.30;100.00
25664;BME280;13522;50.018;20.014;2022-09-30T11:43:43;98316.91;;;12.30;100.00
25664;BME280;13522;50.018;20.014;2022-09-30T11:47:20;98313.58;;;12.36;100.00
25664;BME280;13522;50.018;20.014;2022-09-30T11:50:51;98315.94;;;12.47;100.00
25664;BME280;13522;50.018;20.014;2022-09-30T11:54:17;98320.43;;;12.55;100.00
25664;BME280;13522;50.018;20.014;2022-09-30T11:57:36;98326.42;;;12.57;100.00
25664;BME280;13522;50.018;20.014;2022-09-30T12:00:49;98328.24;;;12.48;100.00
25664;BME280;13522;50.018;20.014;2022-09-30T12:04:06;98319.94;;;12.51;100.00
25664;BME280;13522;50.018;20.014;2022-09-30T12:07:24;98321.94;;;12.57;100.00
25664;BME280;13522;50.018;20.014;2022-09-30T12:10:41;98323.76;;;12.57;100.00
25664;BME280;13522;50.018;20.014;2022-09-30T12:13:58;98326.60;;;12.63;100.00
25664;BME280;13522;50.018;20.014;2022-09-30T12:17:18;98328.07;;;12.66;100.00
25664;BME280;13522;50.018;20.014;2022-09-30T12:20:35;98326.91;;;12.68;100.00
25664;BME280;13522;50.018;20.014;2022-09-30T12:23:53;98326.60;;;12.63;100.00
25664;BME280;13522;50.018;20.014;2022-09-30T12:27:14;98328.07;;;12.58;100.00
25664;BME280;13522;50.018;20.014;2022-09-30T12:30:29;98328.07;;;12.58;100.00
25664;BME280;13522;50.018;20.014;2022-09-30T12:33:51;98327.58;;;12.54;100.00
25664;BME280;13522;50.018;20.014;2022-09-30T12:37:17;98331.92;;;12.55;100.00
25664;BME280;13522;50.018;20.014;2022-09-30T12:40:59;98332.73;;;12.64;100.00
25664;BME280;13522;50.018;20.014;2022-09-30T12:44:45;98341.57;;;12.72;100.00
25664;BME280;13522;50.018;20.014;2022-09-30T12:48:15;98344.90;;;12.74;100.00
25664;BME280;13522;50.018;20.014;2022-09-30T12:51:30;98352.72;;;12.76;100.00
25664;BME280;13522;50.018;20.014;2022-09-30T12:54:48;98354.23;;;12.78;100.00
25664;BME280;13522;50.018;20.014;2022-09-30T12:58:02;98355.24;;;12.77;100.00
25664;BME280;13522;50.018;20.014;2022-09-30T13:01:17;98362.05;;;12.80;100.00
25664;BME280;13522;50.018;20.014;2022-09-30T13:04:37;98368.22;;;12.88;100.00
25664;BME280;13522;50.018;20.014;2022-09-30T13:08:19;98369.55;;;12.92;100.00
25664;BME280;13522;50.018;20.014;2022-09-30T13:11:41;98377.86;;;12.97;100.00
25664;BME280;13522;50.018;20.014;2022-09-30T13:19:02;98380.41;;;13.07;100.00
25664;BME280;13522;50.018;20.014;2022-09-30T13:22:41;98394.41;;;13.09;100.00
25664;BME280;13522;50.018;20.014;2022-09-30T13:25:56;98390.05;;;13.08;100.00
25664;BME280;13522;50.018;20.014;2022-09-30T13:29:35;98394.55;;;13.08;100.00
25664;BME280;13522;50.018;20.014;2022-09-30T13:33:05;98390.55;;;13.03;100.00
25664;BME280;13522;50.018;20.014;2022-09-30T13:36:37;98393.74;;;13.07;100.00
25664;BME280;13522;50.018;20.014;2022-09-30T13:39:52;98394.90;;;13.04;100.00
25664;BME280;13522;50.018;20.014;2022-09-30T13:43:06;98394.55;;;13.08;100.00
25664;BME280;13522;50.018;20.014;2022-09-30T13:46:27;98396.55;;;13.05;100.00
25664;BME280;13522;50.018;20.014;2022-09-30T13:49:48;98395.53;;;12.98;100.00
25664;BME280;13522;50.018;20.014;2022-09-30T13:53:06;98394.20;;;12.94;100.00
25664;BME280;13522;50.018;20.014;2022-09-30T13:56:24;98395.19;;;12.93;100.00
25664;BME280;13522;50.018;20.014;2022-09-30T14:00:03;98392.52;;;12.93;100.00
25664;BME280;13522;50.018;20.014;2022-09-30T14:03:47;98394.20;;;13.02;100.00
25664;BME280;13522;50.018;20.014;2022-09-30T14:07:09;98396.72;;;13.12;100.00
25664;BME280;13522;50.018;20.014;2022-09-30T14:10:36;98398.54;;;13.20;100.00
25664;BME280;13522;50.018;20.014;2022-09-30T14:14:00;98408.21;;;13.29;100.00
25664;BME280;13522;50.018;20.014;2022-09-30T14:17:28;98408.21;;;13.29;100.00
25664;BME280;13522;50.018;20.014;2022-09-30T14:21:00;98403.02;;;13.27;100.00
25664;BME280;13522;50.018;20.014;2022-09-30T14:24:24;98415.86;;;13.32;100.00
25664;BME280;13522;50.018;20.014;2022-09-30T14:28:03;98419.86;;;13.36;100.00
25664;BME280;13522;50.018;20.014;2022-09-30T14:31:16;98414.85;;;13.49;100.00
25664;BME280;13522;50.018;20.014;2022-09-30T14:34:30;98422.13;;;13.63;100.00
25664;BME280;13522;50.018;20.014;2022-09-30T14:37:46;98428.48;;;13.62;100.00
25664;BME280;13522;50.018;20.014;2022-09-30T14:40:59;98434.52;;;13.48;100.00
25664;BME280;13522;50.018;20.014;2022-09-30T14:44:15;98433.84;;;13.46;100.00
25664;BME280;13522;50.018;20.014;2022-09-30T14:47:28;98435.36;;;13.40;100.00
25664;BME280;13522;50.018;20.014;2022-09-30T14:50:46;98435.69;;;13.29;100.00
25664;BME280;13522;50.018;20.014;2022-09-30T14:54:00;98434.53;;;13.24;100.00
25664;BME280;13522;50.018;20.014;2022-09-30T14:57:16;98433.03;;;13.21;100.00
25664;BME280;13522;50.018;20.014;2022-09-30T15:00:32;98434.71;;;13.22;100.00
25664;BME280;13522;50.018;20.014;2022-09-30T15:03:46;98430.22;;;13.23;100.00
25664;BME280;13522;50.018;20.014;2022-09-30T15:07:02;98450.71;;;13.22;100.00
25664;BME280;13522;50.018;20.014;2022-09-30T15:10:22;98460.89;;;13.19;100.00
25664;BME280;13522;50.018;20.014;2022-09-30T15:13:35;98460.71;;;13.12;100.00
25664;BME280;13522;50.018;20.014;2022-09-30T15:16:50;98462.22;;;13.07;100.00
25664;BME280;13522;50.018;20.014;2022-09-30T15:20:22;98444.85;;;13.02;100.00
25664;BME280;13522;50.018;20.014;2022-09-30T15:23:36;98445.83;;;12.93;100.00
25664;BME280;13522;50.018;20.014;2022-09-30T15:26:51;98451.86;;;12.87;100.00
25664;BME280;13522;50.018;20.014;2022-09-30T15:30:20;98469.50;;;12.88;100.00
25664;BME280;13522;50.018;20.014;2022-09-30T15:33:35;98473.98;;;12.88;100.00
25664;BME280;13522;50.018;20.014;2022-09-30T15:36:54;98478.81;;;12.84;100.00
25664;BME280;13522;50.018;20.014;2022-09-30T15:40:15;98473.98;;;12.88;100.00
25664;BME280;13522;50.018;20.014;2022-09-30T15:43:45;98485.31;;;12.90;100.00
25664;BME280;13522;50.018;20.014;2022-09-30T15:47:03;98484.65;;;12.88;100.00
25664;BME280;13522;50.018;20.014;2022-09-30T15:50:36;98491.16;;;12.85;100.00
25664;BME280;13522;50.018;20.014;2022-09-30T15:53:50;98484.15;;;12.84;100.00
25664;BME280;13522;50.018;20.014;2022-09-30T15:57:37;98503.81;;;12.83;100.00
25664;BME280;13522;50.018;20.014;2022-09-30T16:00:46;98499.64;;;12.81;100.00
25664;BME280;13522;50.018;20.014;2022-09-30T16:04:00;98502.14;;;12.82;100.00
25664;BME280;13522;50.018;20.014;2022-09-30T16:07:16;98504.13;;;12.80;100.00
25664;BME280;13522;50.018;20.014;2022-09-30T16:10:30;98509.63;;;12.79;100.00
25664;BME280;13522;50.018;20.014;2022-09-30T16:13:44;98502.95;;;12.75;100.00
25664;BME280;13522;50.018;20.014;2022-09-30T16:17:00;98496.12;;;12.72;100.00
25664;BME280;13522;50.018;20.014;2022-09-30T16:20:23;98503.94;;;12.74;100.00
25664;BME280;13522;50.018;20.014;2022-09-30T16:23:38;98506.77;;;12.72;100.00
25664;BME280;13522;50.018;20.014;2022-09-30T16:26:52;98507.11;;;12.69;100.00
25664;BME280;13522;50.018;20.014;2022-09-30T16:30:06;98516.26;;;12.67;100.00
25664;BME280;13522;50.018;20.014;2022-09-30T16:33:22;98534.91;;;12.67;100.00
25664;BME280;13522;50.018;20.014;2022-09-30T16:36:34;98535.75;;;12.67;100.00
25664;BME280;13522;50.018;20.014;2022-09-30T16:39:45;98549.89;;;12.68;100.00
25664;BME280;13522;50.018;20.014;2022-09-30T16:42:57;98550.73;;;12.68;100.00
25664;BME280;13522;50.018;20.014;2022-09-30T16:46:12;98558.72;;;12.68;100.00
25664;BME280;13522;50.018;20.014;2022-09-30T16:49:23;98559.87;;;12.66;100.00
25664;BME280;13522;50.018;20.014;2022-09-30T16:52:35;98561.86;;;12.64;100.00
25664;BME280;13522;50.018;20.014;2022-09-30T16:55:47;98552.05;;;12.64;100.00
25664;BME280;13522;50.018;20.014;2022-09-30T16:59:00;98538.05;;;12.62;100.00
25664;BME280;13522;50.018;20.014;2022-09-30T17:02:15;98545.06;;;12.63;100.00
25664;BME280;13522;50.018;20.014;2022-09-30T17:05:27;98554.88;;;12.63;100.00
25664;BME280;13522;50.018;20.014;2022-09-30T17:08:38;98560.03;;;12.64;100.00